Terminal Aerodrome Forecast
Issued by NWS

Home | Current Version | Previous Version | Text Only | Print | Product List | Glossary On
Versions: 1 2 3 4 5 6 7 8 9 10 11 12 13 14 15
605
FTUS43 KMPX 241721
TAFRNH
TAF
KRNH 241721Z 2418/2518 29007KT P6SM SCT015 BKN025
     FM241900 28010KT P6SM SCT040
     FM250200 26003KT P6SM SCT250
     FM251500 27010G16KT P6SM SCT250=

USA.gov is the U.S. government's official web portal to all federal, state and local government web resources and services.